Terminal Aerodrome Forecast
Issued by NWS

Home | Current Version | Previous Version | Text Only | Print | Product List | Glossary On
Versions: 1 2 3 4 5 6 7 8 9 10 11 12 13 14 15 16 17 18 19 20 21 22 23 24
000
FTUS44 KOUN 291136
TAFLAW
TAF
KLAW 291136Z 2912/3012 VRB04KT P6SM OVC100
     FM291500 12007KT P6SM BKN100
     FM291700 17010KT P6SM BKN100
     FM300600 18012KT P6SM OVC040 PROB30 3009/3012 4SM TSRA
      OVC040CB=

USA.gov is the U.S. government's official web portal to all federal, state and local government web resources and services.